sensor_id;sensor_type;location;lat;lon;timestamp;P1;durP1;ratioP1;P2;durP2;ratioP2
64834;SDS011;51293;59.296;18.006;2022-08-11T00:01:53;3.05;;;1.90;;
64834;SDS011;51293;59.296;18.006;2022-08-11T00:04:22;3.58;;;1.92;;
64834;SDS011;51293;59.296;18.006;2022-08-11T00:06:50;2.15;;;1.70;;
64834;SDS011;51293;59.296;18.006;2022-08-11T00:09:18;3.88;;;1.75;;
64834;SDS011;51293;59.296;18.006;2022-08-11T00:11:50;6.25;;;1.90;;
64834;SDS011;51293;59.296;18.006;2022-08-11T00:16:55;6.18;;;1.92;;
64834;SDS011;51293;59.296;18.006;2022-08-11T00:19:24;3.83;;;1.70;;
64834;SDS011;51293;59.296;18.006;2022-08-11T00:21:53;3.22;;;1.77;;
64834;SDS011;51293;59.296;18.006;2022-08-11T00:24:19;2.28;;;1.73;;
64834;SDS011;51293;59.296;18.006;2022-08-11T00:26:48;2.30;;;1.70;;
64834;SDS011;51293;59.296;18.006;2022-08-11T00:29:14;4.75;;;2.00;;
64834;SDS011;51293;59.296;18.006;2022-08-11T00:31:47;3.97;;;1.60;;
64834;SDS011;51293;59.296;18.006;2022-08-11T00:34:16;2.08;;;1.55;;
64834;SDS011;51293;59.296;18.006;2022-08-11T00:36:52;2.05;;;1.73;;
64834;SDS011;51293;59.296;18.006;2022-08-11T00:39:21;2.50;;;1.98;;
64834;SDS011;51293;59.296;18.006;2022-08-11T01:07:03;4.47;;;2.00;;
64834;SDS011;51293;59.296;18.006;2022-08-11T01:31:55;2.97;;;2.03;;
64834;SDS011;51293;59.296;18.006;2022-08-11T01:35:03;3.35;;;1.90;;
64834;SDS011;51293;59.296;18.006;2022-08-11T01:42:59;5.18;;;1.90;;
64834;SDS011;51293;59.296;18.006;2022-08-11T01:46:09;4.95;;;1.77;;
64834;SDS011;51293;59.296;18.006;2022-08-11T01:48:44;2.83;;;1.80;;
64834;SDS011;51293;59.296;18.006;2022-08-11T01:51:26;3.40;;;1.90;;
64834;SDS011;51293;59.296;18.006;2022-08-11T01:54:04;3.25;;;1.88;;
64834;SDS011;51293;59.296;18.006;2022-08-11T01:56:39;2.00;;;1.70;;
64834;SDS011;51293;59.296;18.006;2022-08-11T01:59:31;6.88;;;2.10;;
64834;SDS011;51293;59.296;18.006;2022-08-11T02:02:25;4.32;;;1.83;;
64834;SDS011;51293;59.296;18.006;2022-08-11T02:10:48;2.55;;;1.80;;
64834;SDS011;51293;59.296;18.006;2022-08-11T02:13:48;4.18;;;2.05;;
64834;SDS011;51293;59.296;18.006;2022-08-11T02:19:08;4.28;;;2.00;;
64834;SDS011;51293;59.296;18.006;2022-08-11T02:25:05;3.30;;;2.25;;
64834;SDS011;51293;59.296;18.006;2022-08-11T02:30:03;4.68;;;2.10;;
64834;SDS011;51293;59.296;18.006;2022-08-11T02:36:17;5.50;;;1.90;;
64834;SDS011;51293;59.296;18.006;2022-08-11T02:38:36;3.83;;;2.08;;
64834;SDS011;51293;59.296;18.006;2022-08-11T02:47:02;4.40;;;2.20;;
64834;SDS011;51293;59.296;18.006;2022-08-11T02:52:42;3.60;;;2.13;;
64834;SDS011;51293;59.296;18.006;2022-08-11T02:55:34;3.70;;;2.15;;
64834;SDS011;51293;59.296;18.006;2022-08-11T03:00:49;4.60;;;2.10;;
64834;SDS011;51293;59.296;18.006;2022-08-11T03:03:23;3.58;;;2.30;;
64834;SDS011;51293;59.296;18.006;2022-08-11T03:14:28;4.18;;;2.22;;
64834;SDS011;51293;59.296;18.006;2022-08-11T03:17:27;4.05;;;2.30;;
64834;SDS011;51293;59.296;18.006;2022-08-11T03:22:51;4.80;;;2.60;;
64834;SDS011;51293;59.296;18.006;2022-08-11T03:25:41;3.53;;;2.20;;
64834;SDS011;51293;59.296;18.006;2022-08-11T03:33:32;5.13;;;2.38;;
64834;SDS011;51293;59.296;18.006;2022-08-11T03:44:58;6.20;;;2.20;;
64834;SDS011;51293;59.296;18.006;2022-08-11T03:50:29;3.83;;;2.33;;
64834;SDS011;51293;59.296;18.006;2022-08-11T03:53:22;4.40;;;2.58;;
64834;SDS011;51293;59.296;18.006;2022-08-11T03:59:03;4.40;;;2.45;;
64834;SDS011;51293;59.296;18.006;2022-08-11T04:02:04;5.65;;;2.72;;
64834;SDS011;51293;59.296;18.006;2022-08-11T04:23:13;5.28;;;2.22;;
64834;SDS011;51293;59.296;18.006;2022-08-11T04:40:02;7.20;;;2.50;;
64834;SDS011;51293;59.296;18.006;2022-08-11T04:48:46;6.15;;;2.38;;
64834;SDS011;51293;59.296;18.006;2022-08-11T04:54:55;5.85;;;2.40;;
64834;SDS011;51293;59.296;18.006;2022-08-11T05:09:58;8.75;;;2.50;;
64834;SDS011;51293;59.296;18.006;2022-08-11T05:12:41;6.10;;;2.40;;
64834;SDS011;51293;59.296;18.006;2022-08-11T05:15:13;5.78;;;2.40;;
64834;SDS011;51293;59.296;18.006;2022-08-11T05:18:09;4.55;;;2.40;;
64834;SDS011;51293;59.296;18.006;2022-08-11T05:21:03;4.00;;;2.22;;
64834;SDS011;51293;59.296;18.006;2022-08-11T05:27:00;5.03;;;2.28;;
64834;SDS011;51293;59.296;18.006;2022-08-11T05:29:52;3.45;;;2.10;;
64834;SDS011;51293;59.296;18.006;2022-08-11T05:32:41;3.88;;;2.30;;
64834;SDS011;51293;59.296;18.006;2022-08-11T05:35:37;6.47;;;2.13;;
64834;SDS011;51293;59.296;18.006;2022-08-11T05:38:41;5.93;;;2.30;;
64834;SDS011;51293;59.296;18.006;2022-08-11T05:41:20;6.93;;;2.40;;
64834;SDS011;51293;59.296;18.006;2022-08-11T05:44:08;4.45;;;2.33;;
64834;SDS011;51293;59.296;18.006;2022-08-11T05:46:52;4.72;;;2.17;;
64834;SDS011;51293;59.296;18.006;2022-08-11T05:49:37;2.97;;;2.17;;
64834;SDS011;51293;59.296;18.006;2022-08-11T05:52:23;5.15;;;2.30;;
64834;SDS011;51293;59.296;18.006;2022-08-11T05:55:12;6.18;;;2.38;;
64834;SDS011;51293;59.296;18.006;2022-08-11T05:57:59;2.97;;;2.10;;
64834;SDS011;51293;59.296;18.006;2022-08-11T06:00:27;5.22;;;2.10;;
64834;SDS011;51293;59.296;18.006;2022-08-11T06:02:54;4.03;;;2.00;;
64834;SDS011;51293;59.296;18.006;2022-08-11T06:05:23;5.18;;;2.30;;
64834;SDS011;51293;59.296;18.006;2022-08-11T06:10:25;4.25;;;1.95;;
64834;SDS011;51293;59.296;18.006;2022-08-11T06:12:54;9.13;;;2.08;;
64834;SDS011;51293;59.296;18.006;2022-08-11T06:15:22;6.03;;;2.58;;
64834;SDS011;51293;59.296;18.006;2022-08-11T06:17:49;3.45;;;2.10;;
64834;SDS011;51293;59.296;18.006;2022-08-11T06:20:17;3.00;;;2.00;;
64834;SDS011;51293;59.296;18.006;2022-08-11T06:22:44;4.63;;;2.03;;
64834;SDS011;51293;59.296;18.006;2022-08-11T06:25:19;6.05;;;2.28;;
64834;SDS011;51293;59.296;18.006;2022-08-11T06:27:45;4.18;;;2.20;;
64834;SDS011;51293;59.296;18.006;2022-08-11T06:30:21;3.38;;;2.03;;
64834;SDS011;51293;59.296;18.006;2022-08-11T06:32:58;4.15;;;2.10;;
64834;SDS011;51293;59.296;18.006;2022-08-11T06:35:32;4.53;;;2.25;;
64834;SDS011;51293;59.296;18.006;2022-08-11T06:43:08;4.95;;;2.10;;
64834;SDS011;51293;59.296;18.006;2022-08-11T06:48:07;5.35;;;1.90;;
64834;SDS011;51293;59.296;18.006;2022-08-11T06:50:45;6.07;;;2.20;;
64834;SDS011;51293;59.296;18.006;2022-08-11T06:53:31;4.90;;;2.17;;
64834;SDS011;51293;59.296;18.006;2022-08-11T06:55:58;3.95;;;1.90;;
64834;SDS011;51293;59.296;18.006;2022-08-11T06:58:46;6.20;;;2.03;;
64834;SDS011;51293;59.296;18.006;2022-08-11T07:01:35;9.80;;;2.30;;
64834;SDS011;51293;59.296;18.006;2022-08-11T07:04:11;8.30;;;2.28;;
64834;SDS011;51293;59.296;18.006;2022-08-11T07:12:44;6.50;;;2.40;;
64834;SDS011;51293;59.296;18.006;2022-08-11T07:15:34;5.80;;;2.03;;
64834;SDS011;51293;59.296;18.006;2022-08-11T07:18:06;5.20;;;1.98;;
64834;SDS011;51293;59.296;18.006;2022-08-11T07:21:08;8.57;;;2.08;;
64834;SDS011;51293;59.296;18.006;2022-08-11T07:23:55;4.75;;;2.05;;
64834;SDS011;51293;59.296;18.006;2022-08-11T07:26:52;3.90;;;2.05;;
64834;SDS011;51293;59.296;18.006;2022-08-11T07:29:38;4.80;;;2.00;;
64834;SDS011;51293;59.296;18.006;2022-08-11T07:32:19;6.90;;;2.08;;
64834;SDS011;51293;59.296;18.006;2022-08-11T07:34:50;5.82;;;1.95;;
64834;SDS011;51293;59.296;18.006;2022-08-11T07:37:24;4.97;;;1.90;;
64834;SDS011;51293;59.296;18.006;2022-08-11T07:39:53;6.40;;;2.10;;
64834;SDS011;51293;59.296;18.006;2022-08-11T07:42:21;5.15;;;1.95;;
64834;SDS011;51293;59.296;18.006;2022-08-11T07:44:51;5.10;;;1.75;;
64834;SDS011;51293;59.296;18.006;2022-08-11T07:47:35;7.00;;;1.85;;
64834;SDS011;51293;59.296;18.006;2022-08-11T07:50:22;6.45;;;2.00;;
64834;SDS011;51293;59.296;18.006;2022-08-11T07:53:06;7.47;;;1.90;;
64834;SDS011;51293;59.296;18.006;2022-08-11T07:55:32;4.38;;;2.00;;
64834;SDS011;51293;59.296;18.006;2022-08-11T07:57:59;4.63;;;2.00;;
64834;SDS011;51293;59.296;18.006;2022-08-11T08:00:44;7.82;;;1.92;;
64834;SDS011;51293;59.296;18.006;2022-08-11T08:03:35;8.15;;;1.95;;
64834;SDS011;51293;59.296;18.006;2022-08-11T08:06:21;5.10;;;2.00;;
64834;SDS011;51293;59.296;18.006;2022-08-11T08:09:07;5.95;;;1.90;;
64834;SDS011;51293;59.296;18.006;2022-08-11T08:11:51;3.58;;;2.13;;
64834;SDS011;51293;59.296;18.006;2022-08-11T08:14:35;4.40;;;1.85;;
64834;SDS011;51293;59.296;18.006;2022-08-11T08:17:21;4.50;;;1.60;;
64834;SDS011;51293;59.296;18.006;2022-08-11T08:20:07;9.55;;;2.00;;
64834;SDS011;51293;59.296;18.006;2022-08-11T08:22:35;10.52;;;1.88;;
64834;SDS011;51293;59.296;18.006;2022-08-11T08:25:02;6.05;;;1.88;;
64834;SDS011;51293;59.296;18.006;2022-08-11T08:27:29;3.72;;;1.77;;
64834;SDS011;51293;59.296;18.006;2022-08-11T08:29:54;4.53;;;1.85;;
64834;SDS011;51293;59.296;18.006;2022-08-11T08:32:39;3.10;;;1.60;;
64834;SDS011;51293;59.296;18.006;2022-08-11T08:35:07;4.78;;;1.83;;
64834;SDS011;51293;59.296;18.006;2022-08-11T08:37:35;4.80;;;1.70;;
64834;SDS011;51293;59.296;18.006;2022-08-11T08:40:01;5.10;;;1.75;;
64834;SDS011;51293;59.296;18.006;2022-08-11T08:42:31;7.03;;;1.90;;
64834;SDS011;51293;59.296;18.006;2022-08-11T08:45:06;4.88;;;1.90;;
64834;SDS011;51293;59.296;18.006;2022-08-11T08:47:35;3.63;;;1.58;;
64834;SDS011;51293;59.296;18.006;2022-08-11T08:50:05;4.35;;;1.73;;
64834;SDS011;51293;59.296;18.006;2022-08-11T08:52:42;2.90;;;1.48;;
64834;SDS011;51293;59.296;18.006;2022-08-11T08:55:15;6.60;;;1.58;;
64834;SDS011;51293;59.296;18.006;2022-08-11T08:57:43;4.65;;;1.70;;
64834;SDS011;51293;59.296;18.006;2022-08-11T09:00:10;4.85;;;1.90;;
64834;SDS011;51293;59.296;18.006;2022-08-11T09:02:39;6.15;;;1.63;;
64834;SDS011;51293;59.296;18.006;2022-08-11T09:05:05;3.38;;;1.80;;
64834;SDS011;51293;59.296;18.006;2022-08-11T09:07:34;3.35;;;1.55;;
64834;SDS011;51293;59.296;18.006;2022-08-11T09:10:00;6.35;;;1.45;;
64834;SDS011;51293;59.296;18.006;2022-08-11T09:12:27;2.40;;;1.20;;
64834;SDS011;51293;59.296;18.006;2022-08-11T09:14:55;4.07;;;1.50;;
64834;SDS011;51293;59.296;18.006;2022-08-11T09:17:25;2.47;;;1.33;;
64834;SDS011;51293;59.296;18.006;2022-08-11T09:20:00;3.95;;;1.73;;
64834;SDS011;51293;59.296;18.006;2022-08-11T09:22:30;5.45;;;1.50;;
64834;SDS011;51293;59.296;18.006;2022-08-11T09:25:18;4.07;;;1.40;;
64834;SDS011;51293;59.296;18.006;2022-08-11T09:28:04;2.85;;;1.40;;
64834;SDS011;51293;59.296;18.006;2022-08-11T09:30:34;8.60;;;1.95;;
64834;SDS011;51293;59.296;18.006;2022-08-11T09:33:01;4.85;;;1.60;;
64834;SDS011;51293;59.296;18.006;2022-08-11T09:35:29;5.93;;;1.58;;
64834;SDS011;51293;59.296;18.006;2022-08-11T09:37:58;5.80;;;1.48;;
64834;SDS011;51293;59.296;18.006;2022-08-11T09:40:45;3.78;;;1.50;;
64834;SDS011;51293;59.296;18.006;2022-08-11T09:43:12;3.00;;;1.40;;
64834;SDS011;51293;59.296;18.006;2022-08-11T09:46:02;5.88;;;1.55;;
64834;SDS011;51293;59.296;18.006;2022-08-11T09:48:30;7.40;;;2.67;;
64834;SDS011;51293;59.296;18.006;2022-08-11T09:51:00;4.57;;;1.90;;
64834;SDS011;51293;59.296;18.006;2022-08-11T09:53:29;4.90;;;1.75;;
64834;SDS011;51293;59.296;18.006;2022-08-11T09:55:57;4.03;;;1.90;;
64834;SDS011;51293;59.296;18.006;2022-08-11T09:58:23;4.85;;;1.70;;
64834;SDS011;51293;59.296;18.006;2022-08-11T10:00:49;7.00;;;2.00;;
64834;SDS011;51293;59.296;18.006;2022-08-11T10:05:47;4.97;;;1.83;;
64834;SDS011;51293;59.296;18.006;2022-08-11T10:08:33;3.42;;;1.42;;
64834;SDS011;51293;59.296;18.006;2022-08-11T10:11:01;5.72;;;1.50;;
64834;SDS011;51293;59.296;18.006;2022-08-11T10:13:31;4.90;;;1.48;;
64834;SDS011;51293;59.296;18.006;2022-08-11T10:16:17;3.17;;;1.35;;
64834;SDS011;51293;59.296;18.006;2022-08-11T10:18:48;6.13;;;1.70;;
64834;SDS011;51293;59.296;18.006;2022-08-11T10:23:58;3.72;;;1.30;;
64834;SDS011;51293;59.296;18.006;2022-08-11T10:26:44;4.75;;;1.50;;
64834;SDS011;51293;59.296;18.006;2022-08-11T10:29:26;2.97;;;1.35;;
64834;SDS011;51293;59.296;18.006;2022-08-11T10:32:17;8.27;;;1.63;;
64834;SDS011;51293;59.296;18.006;2022-08-11T10:35:03;3.35;;;1.50;;
64834;SDS011;51293;59.296;18.006;2022-08-11T10:37:33;3.10;;;1.48;;
64834;SDS011;51293;59.296;18.006;2022-08-11T10:40:01;3.63;;;1.45;;
64834;SDS011;51293;59.296;18.006;2022-08-11T10:42:29;4.45;;;1.30;;
64834;SDS011;51293;59.296;18.006;2022-08-11T10:45:15;2.30;;;1.40;;
64834;SDS011;51293;59.296;18.006;2022-08-11T10:48:00;3.47;;;1.30;;
64834;SDS011;51293;59.296;18.006;2022-08-11T10:50:27;5.43;;;1.52;;
64834;SDS011;51293;59.296;18.006;2022-08-11T10:53:12;2.95;;;1.30;;
64834;SDS011;51293;59.296;18.006;2022-08-11T10:55:57;3.50;;;1.40;;
64834;SDS011;51293;59.296;18.006;2022-08-11T10:58:42;4.63;;;1.65;;
64834;SDS011;51293;59.296;18.006;2022-08-11T11:01:12;3.63;;;1.40;;
64834;SDS011;51293;59.296;18.006;2022-08-11T11:03:39;3.53;;;1.58;;
64834;SDS011;51293;59.296;18.006;2022-08-11T11:09:30;5.67;;;1.50;;
64834;SDS011;51293;59.296;18.006;2022-08-11T11:11:59;1.95;;;1.35;;
64834;SDS011;51293;59.296;18.006;2022-08-11T11:14:50;3.38;;;1.40;;
64834;SDS011;51293;59.296;18.006;2022-08-11T11:17:40;3.38;;;1.20;;
64834;SDS011;51293;59.296;18.006;2022-08-11T11:20:24;3.00;;;1.30;;
64834;SDS011;51293;59.296;18.006;2022-08-11T11:22:56;2.22;;;1.20;;
64834;SDS011;51293;59.296;18.006;2022-08-11T11:31:10;6.90;;;1.40;;
64834;SDS011;51293;59.296;18.006;2022-08-11T11:34:08;3.17;;;1.23;;
64834;SDS011;51293;59.296;18.006;2022-08-11T11:36:47;2.08;;;1.10;;
64834;SDS011;51293;59.296;18.006;2022-08-11T11:39:22;3.42;;;1.40;;
64834;SDS011;51293;59.296;18.006;2022-08-11T11:41:51;2.90;;;1.20;;
64834;SDS011;51293;59.296;18.006;2022-08-11T11:44:20;2.97;;;1.30;;
64834;SDS011;51293;59.296;18.006;2022-08-11T11:46:47;3.58;;;1.45;;
64834;SDS011;51293;59.296;18.006;2022-08-11T11:49:13;3.83;;;1.30;;
64834;SDS011;51293;59.296;18.006;2022-08-11T11:51:42;3.90;;;1.27;;
64834;SDS011;51293;59.296;18.006;2022-08-11T11:54:10;1.85;;;1.20;;
64834;SDS011;51293;59.296;18.006;2022-08-11T11:56:38;2.88;;;1.25;;
64834;SDS011;51293;59.296;18.006;2022-08-11T11:59:05;2.30;;;1.25;;
64834;SDS011;51293;59.296;18.006;2022-08-11T12:01:49;2.45;;;1.10;;
64834;SDS011;51293;59.296;18.006;2022-08-11T12:04:16;6.75;;;1.40;;
64834;SDS011;51293;59.296;18.006;2022-08-11T12:06:44;2.10;;;1.08;;
64834;SDS011;51293;59.296;18.006;2022-08-11T12:09:11;3.97;;;1.25;;
64834;SDS011;51293;59.296;18.006;2022-08-11T12:11:39;3.35;;;1.15;;
64834;SDS011;51293;59.296;18.006;2022-08-11T12:14:24;3.53;;;1.10;;
64834;SDS011;51293;59.296;18.006;2022-08-11T12:16:52;3.70;;;1.33;;
64834;SDS011;51293;59.296;18.006;2022-08-11T12:19:24;2.78;;;1.10;;
64834;SDS011;51293;59.296;18.006;2022-08-11T12:21:54;1.70;;;1.10;;
64834;SDS011;51293;59.296;18.006;2022-08-11T12:24:40;3.20;;;1.17;;
64834;SDS011;51293;59.296;18.006;2022-08-11T12:27:25;1.42;;;0.93;;
64834;SDS011;51293;59.296;18.006;2022-08-11T12:29:53;2.95;;;1.00;;
64834;SDS011;51293;59.296;18.006;2022-08-11T12:32:19;4.53;;;1.10;;
64834;SDS011;51293;59.296;18.006;2022-08-11T12:34:46;2.10;;;1.00;;
64834;SDS011;51293;59.296;18.006;2022-08-11T12:37:12;1.98;;;0.80;;
64834;SDS011;51293;59.296;18.006;2022-08-11T12:39:46;2.55;;;1.00;;
64834;SDS011;51293;59.296;18.006;2022-08-11T12:42:33;7.05;;;1.20;;
64834;SDS011;51293;59.296;18.006;2022-08-11T12:45:18;2.42;;;1.00;;
64834;SDS011;51293;59.296;18.006;2022-08-11T12:47:53;3.40;;;1.20;;
64834;SDS011;51293;59.296;18.006;2022-08-11T12:50:45;1.85;;;1.15;;
64834;SDS011;51293;59.296;18.006;2022-08-11T12:53:34;2.70;;;1.00;;
64834;SDS011;51293;59.296;18.006;2022-08-11T12:56:07;3.50;;;1.10;;
64834;SDS011;51293;59.296;18.006;2022-08-11T12:58:51;4.72;;;1.10;;
64834;SDS011;51293;59.296;18.006;2022-08-11T13:01:37;4.10;;;1.00;;
64834;SDS011;51293;59.296;18.006;2022-08-11T13:04:21;3.00;;;1.00;;
64834;SDS011;51293;59.296;18.006;2022-08-11T13:07:06;4.00;;;1.17;;
64834;SDS011;51293;59.296;18.006;2022-08-11T13:09:32;2.03;;;1.02;;
64834;SDS011;51293;59.296;18.006;2022-08-11T13:11:57;2.08;;;0.90;;
64834;SDS011;51293;59.296;18.006;2022-08-11T13:14:41;5.30;;;1.20;;
64834;SDS011;51293;59.296;18.006;2022-08-11T13:17:07;3.85;;;1.23;;
64834;SDS011;51293;59.296;18.006;2022-08-11T13:19:48;2.90;;;1.30;;
64834;SDS011;51293;59.296;18.006;2022-08-11T13:22:19;3.85;;;1.00;;
64834;SDS011;51293;59.296;18.006;2022-08-11T13:24:47;4.90;;;1.02;;
64834;SDS011;51293;59.296;18.006;2022-08-11T13:27:14;1.80;;;1.00;;
64834;SDS011;51293;59.296;18.006;2022-08-11T13:29:42;3.72;;;1.17;;
64834;SDS011;51293;59.296;18.006;2022-08-11T13:32:10;2.88;;;1.10;;
64834;SDS011;51293;59.296;18.006;2022-08-11T13:34:38;3.97;;;1.27;;
64834;SDS011;51293;59.296;18.006;2022-08-11T13:37:06;2.17;;;1.00;;
64834;SDS011;51293;59.296;18.006;2022-08-11T13:39:33;2.35;;;1.00;;
64834;SDS011;51293;59.296;18.006;2022-08-11T13:42:01;2.85;;;1.10;;
64834;SDS011;51293;59.296;18.006;2022-08-11T13:44:29;3.15;;;1.20;;
64834;SDS011;51293;59.296;18.006;2022-08-11T13:46:58;4.68;;;1.25;;
64834;SDS011;51293;59.296;18.006;2022-08-11T13:49:26;4.07;;;1.30;;
64834;SDS011;51293;59.296;18.006;2022-08-11T13:51:53;3.20;;;1.15;;
64834;SDS011;51293;59.296;18.006;2022-08-11T13:54:33;8.48;;;1.27;;
64834;SDS011;51293;59.296;18.006;2022-08-11T13:57:03;3.05;;;1.20;;
64834;SDS011;51293;59.296;18.006;2022-08-11T13:59:31;3.78;;;1.15;;
64834;SDS011;51293;59.296;18.006;2022-08-11T14:02:02;2.10;;;1.00;;
64834;SDS011;51293;59.296;18.006;2022-08-11T14:04:29;2.95;;;1.00;;
64834;SDS011;51293;59.296;18.006;2022-08-11T14:06:59;1.60;;;1.10;;
64834;SDS011;51293;59.296;18.006;2022-08-11T14:09:31;4.20;;;1.08;;
64834;SDS011;51293;59.296;18.006;2022-08-11T14:12:01;1.92;;;1.13;;
64834;SDS011;51293;59.296;18.006;2022-08-11T14:14:56;2.75;;;1.05;;
64834;SDS011;51293;59.296;18.006;2022-08-11T14:17:25;4.15;;;1.40;;
64834;SDS011;51293;59.296;18.006;2022-08-11T14:19:54;3.45;;;1.10;;
64834;SDS011;51293;59.296;18.006;2022-08-11T14:22:20;2.88;;;1.40;;
64834;SDS011;51293;59.296;18.006;2022-08-11T14:24:46;2.42;;;1.20;;
64834;SDS011;51293;59.296;18.006;2022-08-11T14:27:15;2.05;;;1.10;;
64834;SDS011;51293;59.296;18.006;2022-08-11T14:29:42;2.63;;;1.10;;
64834;SDS011;51293;59.296;18.006;2022-08-11T14:32:10;5.32;;;1.10;;
64834;SDS011;51293;59.296;18.006;2022-08-11T14:34:38;3.88;;;1.10;;
64834;SDS011;51293;59.296;18.006;2022-08-11T14:37:06;2.05;;;1.00;;
64834;SDS011;51293;59.296;18.006;2022-08-11T14:39:39;2.90;;;1.03;;
64834;SDS011;51293;59.296;18.006;2022-08-11T14:42:07;4.45;;;1.15;;
64834;SDS011;51293;59.296;18.006;2022-08-11T14:44:55;3.15;;;1.23;;
64834;SDS011;51293;59.296;18.006;2022-08-11T14:47:42;3.35;;;1.10;;
64834;SDS011;51293;59.296;18.006;2022-08-11T14:50:10;3.38;;;1.00;;
64834;SDS011;51293;59.296;18.006;2022-08-11T14:53:00;3.20;;;1.20;;
64834;SDS011;51293;59.296;18.006;2022-08-11T14:55:26;5.40;;;1.20;;
64834;SDS011;51293;59.296;18.006;2022-08-11T14:58:13;4.20;;;1.20;;
64834;SDS011;51293;59.296;18.006;2022-08-11T15:00:41;2.58;;;1.27;;
64834;SDS011;51293;59.296;18.006;2022-08-11T15:03:09;3.83;;;1.33;;
64834;SDS011;51293;59.296;18.006;2022-08-11T15:05:58;6.13;;;1.20;;
64834;SDS011;51293;59.296;18.006;2022-08-11T15:08:29;2.50;;;1.20;;
64834;SDS011;51293;59.296;18.006;2022-08-11T15:11:16;2.22;;;1.02;;
64834;SDS011;51293;59.296;18.006;2022-08-11T15:14:02;3.53;;;1.10;;
64834;SDS011;51293;59.296;18.006;2022-08-11T15:16:30;6.28;;;1.00;;
64834;SDS011;51293;59.296;18.006;2022-08-11T15:19:14;3.45;;;1.10;;
64834;SDS011;51293;59.296;18.006;2022-08-11T15:21:44;2.58;;;1.17;;
64834;SDS011;51293;59.296;18.006;2022-08-11T15:24:30;1.30;;;0.88;;
64834;SDS011;51293;59.296;18.006;2022-08-11T15:26:57;2.15;;;1.00;;
64834;SDS011;51293;59.296;18.006;2022-08-11T15:29:44;3.28;;;1.15;;
64834;SDS011;51293;59.296;18.006;2022-08-11T15:32:29;2.00;;;1.20;;
64834;SDS011;51293;59.296;18.006;2022-08-11T15:35:16;1.75;;;1.05;;
64834;SDS011;51293;59.296;18.006;2022-08-11T15:38:01;1.58;;;0.95;;
64834;SDS011;51293;59.296;18.006;2022-08-11T15:40:30;2.60;;;1.10;;
64834;SDS011;51293;59.296;18.006;2022-08-11T15:43:36;2.90;;;1.10;;
64834;SDS011;51293;59.296;18.006;2022-08-11T15:49:38;1.65;;;1.00;;
64834;SDS011;51293;59.296;18.006;2022-08-11T15:52:05;3.47;;;1.10;;
64834;SDS011;51293;59.296;18.006;2022-08-11T15:54:34;4.10;;;1.20;;
64834;SDS011;51293;59.296;18.006;2022-08-11T15:57:03;1.92;;;0.70;;
64834;SDS011;51293;59.296;18.006;2022-08-11T15:59:30;4.32;;;1.00;;
64834;SDS011;51293;59.296;18.006;2022-08-11T16:02:18;4.40;;;1.13;;
64834;SDS011;51293;59.296;18.006;2022-08-11T16:05:09;2.30;;;1.00;;
64834;SDS011;51293;59.296;18.006;2022-08-11T16:07:37;2.92;;;1.20;;
64834;SDS011;51293;59.296;18.006;2022-08-11T16:10:09;1.77;;;1.10;;
64834;SDS011;51293;59.296;18.006;2022-08-11T16:12:40;3.53;;;1.23;;
64834;SDS011;51293;59.296;18.006;2022-08-11T16:15:39;3.70;;;1.20;;
64834;SDS011;51293;59.296;18.006;2022-08-11T16:18:29;4.63;;;1.20;;
64834;SDS011;51293;59.296;18.006;2022-08-11T16:21:09;4.10;;;1.17;;
64834;SDS011;51293;59.296;18.006;2022-08-11T16:23:36;4.00;;;1.23;;
64834;SDS011;51293;59.296;18.006;2022-08-11T16:26:04;3.97;;;1.17;;
64834;SDS011;51293;59.296;18.006;2022-08-11T16:28:32;5.22;;;1.27;;
64834;SDS011;51293;59.296;18.006;2022-08-11T16:30:59;6.00;;;1.08;;
64834;SDS011;51293;59.296;18.006;2022-08-11T16:33:26;1.90;;;1.10;;
64834;SDS011;51293;59.296;18.006;2022-08-11T16:35:54;2.67;;;1.20;;
64834;SDS011;51293;59.296;18.006;2022-08-11T16:38:39;2.08;;;1.10;;
64834;SDS011;51293;59.296;18.006;2022-08-11T16:41:06;1.55;;;1.10;;
64834;SDS011;51293;59.296;18.006;2022-08-11T16:43:37;2.67;;;1.20;;
64834;SDS011;51293;59.296;18.006;2022-08-11T16:46:23;2.63;;;1.13;;
64834;SDS011;51293;59.296;18.006;2022-08-11T16:49:03;2.08;;;1.20;;
64834;SDS011;51293;59.296;18.006;2022-08-11T16:51:30;4.88;;;1.17;;
64834;SDS011;51293;59.296;18.006;2022-08-11T16:53:56;2.17;;;1.17;;
64834;SDS011;51293;59.296;18.006;2022-08-11T16:56:24;6.93;;;1.25;;
64834;SDS011;51293;59.296;18.006;2022-08-11T16:58:55;5.63;;;1.50;;
64834;SDS011;51293;59.296;18.006;2022-08-11T17:07:05;7.00;;;1.45;;
64834;SDS011;51293;59.296;18.006;2022-08-11T17:09:50;2.00;;;1.25;;
64834;SDS011;51293;59.296;18.006;2022-08-11T17:12:36;2.40;;;1.13;;
64834;SDS011;51293;59.296;18.006;2022-08-11T17:15:24;3.65;;;1.20;;
64834;SDS011;51293;59.296;18.006;2022-08-11T17:18:11;4.47;;;1.25;;
64834;SDS011;51293;59.296;18.006;2022-08-11T17:20:59;1.65;;;1.02;;
64834;SDS011;51293;59.296;18.006;2022-08-11T17:23:26;1.95;;;1.13;;
64834;SDS011;51293;59.296;18.006;2022-08-11T17:26:22;3.13;;;1.00;;
64834;SDS011;51293;59.296;18.006;2022-08-11T17:29:13;1.67;;;1.20;;
64834;SDS011;51293;59.296;18.006;2022-08-11T17:31:42;2.33;;;1.10;;
64834;SDS011;51293;59.296;18.006;2022-08-11T17:34:29;3.25;;;1.05;;
64834;SDS011;51293;59.296;18.006;2022-08-11T17:37:13;3.33;;;1.45;;
64834;SDS011;51293;59.296;18.006;2022-08-11T17:39:39;3.03;;;1.40;;
64834;SDS011;51293;59.296;18.006;2022-08-11T17:42:05;3.60;;;1.33;;
64834;SDS011;51293;59.296;18.006;2022-08-11T17:44:50;4.78;;;1.55;;
64834;SDS011;51293;59.296;18.006;2022-08-11T17:47:35;2.05;;;1.10;;
64834;SDS011;51293;59.296;18.006;2022-08-11T17:50:19;3.20;;;1.30;;
64834;SDS011;51293;59.296;18.006;2022-08-11T17:52:46;5.38;;;1.30;;
64834;SDS011;51293;59.296;18.006;2022-08-11T17:55:32;2.95;;;1.52;;
64834;SDS011;51293;59.296;18.006;2022-08-11T17:58:18;3.00;;;1.50;;
64834;SDS011;51293;59.296;18.006;2022-08-11T18:01:04;5.22;;;1.30;;
64834;SDS011;51293;59.296;18.006;2022-08-11T18:03:31;2.15;;;1.15;;
64834;SDS011;51293;59.296;18.006;2022-08-11T18:06:03;4.60;;;1.00;;
64834;SDS011;51293;59.296;18.006;2022-08-11T18:08:31;2.33;;;1.20;;
64834;SDS011;51293;59.296;18.006;2022-08-11T18:11:16;4.93;;;1.40;;
64834;SDS011;51293;59.296;18.006;2022-08-11T18:14:03;3.63;;;1.15;;
64834;SDS011;51293;59.296;18.006;2022-08-11T18:16:49;3.00;;;1.10;;
64834;SDS011;51293;59.296;18.006;2022-08-11T18:19:34;4.00;;;1.20;;
64834;SDS011;51293;59.296;18.006;2022-08-11T18:22:22;4.47;;;1.30;;
64834;SDS011;51293;59.296;18.006;2022-08-11T18:25:12;7.45;;;1.30;;
64834;SDS011;51293;59.296;18.006;2022-08-11T18:27:58;2.03;;;1.08;;
64834;SDS011;51293;59.296;18.006;2022-08-11T18:30:45;5.07;;;1.20;;
64834;SDS011;51293;59.296;18.006;2022-08-11T18:33:38;2.47;;;1.20;;
64834;SDS011;51293;59.296;18.006;2022-08-11T18:36:28;3.25;;;1.30;;
64834;SDS011;51293;59.296;18.006;2022-08-11T18:39:17;5.65;;;1.20;;
64834;SDS011;51293;59.296;18.006;2022-08-11T18:42:05;2.47;;;1.30;;
64834;SDS011;51293;59.296;18.006;2022-08-11T18:44:54;7.00;;;1.17;;
64834;SDS011;51293;59.296;18.006;2022-08-11T18:47:43;2.45;;;1.20;;
64834;SDS011;51293;59.296;18.006;2022-08-11T18:50:30;1.88;;;1.20;;
64834;SDS011;51293;59.296;18.006;2022-08-11T18:53:15;4.05;;;1.38;;
64834;SDS011;51293;59.296;18.006;2022-08-11T18:55:59;3.33;;;1.50;;
64834;SDS011;51293;59.296;18.006;2022-08-11T18:58:44;4.18;;;1.40;;
64834;SDS011;51293;59.296;18.006;2022-08-11T19:01:30;1.80;;;1.20;;
64834;SDS011;51293;59.296;18.006;2022-08-11T19:04:19;3.58;;;1.30;;